Aktualne dane pomiarowe

Uwaga, wersja testowa! Automatyczne pobieranie danych za pomocą narzędzi lub skryptów to umożliwiających jest zabronione.

Dane meteo z obszaru Polski uzyskane na podstawie depesz SYNOP pobieranych co godzinę z NWS. Najedź myszką na symbol przedstawiony w tabeli, aby uzyskać informacje co do jego znaczenia. Prosimy pamiętać, że to testowa wersja strony, która jeszcze nie jest ukończona. Stworzono również jest krótki FAQ dotyczący korzystania z tej podstrony Anomalie temperatury w chwili obecnej odniesione są do okresu referencyjnego 1951-2016. Okres ten będzie później zmieniony na 1981-2010. Kliknij ikonę aby pobrać plik CSV. Kliknij ikonę aby wygenerować mapę synoptyczną dla danego terminu.

Wybierz Datę:    

        

Włodawa (12497)

Dane terminowe dla wybranej stacji. Kliknij datę, aby otrzymać dane z tego terminu dla wszystkich stacji.

TemperaturaZachmurzenieWiatrCiśnienieOpadyPogoda
 Data t td wb tx tn tg rh  Nt Nl Cl Cm Ch ws wd g1 g2 wx mslp ppp ch 24h 12h t ww ww w1 w2  
2019-07-12 23:00:00 13.3 11.7 12.2--- 9020.0wxwxwxwx1wx--11010.0 988.6 -0.4---------
2019-07-12 22:00:00 14.1 12.3 12.8--- 8920.0wxwxwxwx2wx---1010.1 988.8 0.1---------
2019-07-12 21:00:00 15.2 12.5 13.4--- 8420.0wxwxwx0--701010.0 988.8 0.0---wx-w1--
2019-07-12 20:00:00 15.4 13.4 14.0--- 8820.0wxwxwx0---01010.2 989.0 0.6---------
2019-07-12 19:00:00 16.7 11.8 13.5--- 7320.0wxwxwxwx1wx-711009.8 988.7 0.6---wx---
2019-07-12 18:00:00 17.3 13.2 14.6 24.4 16.7- 7720.0wxwxwxwx1wx-1011009.9 988.8 0.8- 0.112wx---
2019-07-12 17:00:00 19.4 10.1 13.8--- 5520.0wxwxwxwx1wx--11009.3 988.4 0.0---------
2019-07-12 16:00:00 20.8 8.1 13.6--- 4420.0wxwxwx5wx--51008.9 988.1 -0.6---------
2019-07-12 15:00:00 23.8 6.6 14.2--- 3320.0wxwxwxwx5wx-1051008.6 988.0 -1.0---------
2019-07-12 14:00:00 24.1 7.3 14.7--- 3420.0wxwxwxwx5wx-951009.0 988.4 -0.8---------
2019-07-12 13:00:00 22.5 7.5 14.1--- 3820.0wxwxwxwx4wx-1041009.4 988.7 -0.6---------
2019-07-12 12:00:00 21.9 7.7 13.9--- 4020.0wxwxwxwx4wx--41009.8 989.0 -0.3- 0.06------
2019-07-12 11:00:00 21.7 7.9 13.9--- 4120.0wxwxwxwx5wx--51010.0 989.2 -0.3---------
2019-07-12 10:00:00 20.9 7.8 13.5--- 4320.0wxwxwxwx5wx--51010.1 989.3 -0.1---------
2019-07-12 09:00:00 21.0 8.6 13.9--- 4520.0wxwxwxwx4wx---1010.1 989.3 -0.3---------
2019-07-12 08:00:00 19.9 9.5 13.8--- 5120.0wxwxwxwxwx4wx--41010.4 989.5 -0.1---------
2019-07-12 07:00:00 18.8 9.6 13.3--- 5520.0wx-wxwx4wx--41010.4 989.4 0.0---------
2019-07-12 06:00:00 16.7 10.5 12.8 16.8 11.3 10 6720.0wx-wxwx3wx--31010.7 989.6 0.3- 0.012----- 1.7
2019-07-12 05:00:00 14.0 10.4 11.7--- 7920.0wx-wxwx2wx---1010.9 989.6 0.6---------
2019-07-12 04:00:00 12.8 10.0 10.9--- 8320.0wx-wxwx2wx--21010.8 989.4 0.2---------
2019-07-12 03:00:00 11.6 9.3 10.1--- 8620.0wx-wxwx2wx--21010.8 989.3 -0.2---------
2019-07-12 02:00:00 12.5 9.7 10.6--- 8320.0wx-wx3wx--31010.4 989.0 -0.7---------
2019-07-12 01:00:00 12.6 10.0 10.9--- 8420.0wx-wx3wx--31010.6 989.2 -0.6---------
2019-07-12 00:00:00 12.4 10.5 11.1--- 8820.0wx-wx3wx--31011.0 989.5 -0.1- 0.06------
2019-07-11 23:00:00 11.8 10.5 10.9--- 9220.0wx-wx2wx--21011.2 989.7 0.2---------
2019-07-11 22:00:00 11.6 9.8 10.4--- 8920.0wxwxwxwx2wx--21011.3 989.8 0.4---------
2019-07-11 21:00:00 12.5 10.0 10.8--- 8520.0wxwxwxwx2wx--21011.1 989.6 0.4---------
2019-07-11 20:00:00 13.7 10.7 11.7--- 8220.0wxwxwxwx2wx--21010.9 989.5 0.4---------
2019-07-11 19:00:00 14.5 10.3 11.8--- 7620.0wxwxwxwx3wx--31010.7 989.4 0.2---------
2019-07-11 18:00:00 15.2 10.6 12.3 18.4 11.2- 7420.0wxwxwxwx3wx--31010.4 989.2 0.4--12wx-w1--
2019-07-11 17:00:00 16.8 10.4 12.8--- 6620.0wxwxwxwxwx3wx--31010.2 989.1 0.1---------
2019-07-11 16:00:00 17.5 9.6 12.7--- 6020.0wxwxwxwx4wx--41010.3 989.2 0.5---------
2019-07-11 15:00:00 17.0 10.1 12.8--- 6420.0wxwxwxwx3wx--31009.9 988.8 0.4---wx---
2019-07-11 14:00:00 16.1 10.2 12.4--- 6820.0wxwxwxwx4wx--41010.2 989.0 0.3---wx---
2019-07-11 13:00:00 16.4 11.1 13.0--- 7120.0wxwxwxwx4wx--41009.8 988.7 -0.4---wx---
2019-07-11 12:00:00 18.2 10.3 13.4--- 6020.0wxwxwxwx4wx-841009.4 988.4 -1.0--6wx-w1--
2019-07-11 11:00:00 17.6 11.2 13.6--- 6620.0wxwxwxwx4wx--41009.8 988.7 -0.4---------
2019-07-11 10:00:00 15.1 11.7 12.8--- 8020.0wxwxwx4wx--41010.4 989.1 0.2---------
2019-07-11 09:00:00 13.3 11.0 11.7--- 8620.0wxwxwx4wx-841010.8 989.4 0.6---wx---
2019-07-11 08:00:00 12.4 11.3 11.6--- 938.0wxwxwx4wx--41010.6 989.1 0.5---wx---
2019-07-11 07:00:00 11.9 10.5 10.9--- 9115.0wxwxwx4wx---1010.4 988.9 0.4---wx-w1--
2019-07-11 06:00:00 11.4 9.3 10.0 14.1 8.7 8 8720.0wxwxwx4wx-941010.3 988.8 0.5 1.3-12wx-- 2.8
2019-07-11 05:00:00 10.4 8.5 9.1--- 8820.0wxwxwxwxwx5wx-951010.2 988.6 0.4---------
2019-07-11 04:00:00 9.3 7.7 8.2--- 9020.0wxwxwxwx4wx--41010.2 988.5 0.2---------
2019-07-11 03:00:00 8.9 7.7 8.1--- 9220.0wxwxwxwxwx4wx--41010.0 988.3 -0.1---------
2019-07-11 02:00:00 9.5 7.6 8.2--- 8820.0wxwxwxwx3wx--31009.9 988.2 -0.2---------
2019-07-11 01:00:00 9.9 8.0 8.6--- 8820.0wxwxwxwxwx5wx--51009.9 988.3 -0.1---------
2019-07-11 00:00:00 10.7 8.8 9.4--- 8820.0wxwxwxwxwx4wx--41010.0 988.4 -0.1--6wx-w1--
1.3 ms

 

Print Friendly, PDF & Email